createdAt,value
2019-03-10T00:05:00.360Z,2.49
2019-03-10T00:10:09.156Z,2.38
2019-03-10T00:15:18.078Z,2.59
2019-03-10T00:20:27.087Z,2.47
2019-03-10T00:25:36.262Z,2.61
2019-03-10T00:30:45.263Z,2.66
2019-03-10T00:35:54.203Z,2.40
2019-03-10T00:41:03.226Z,3.00
2019-03-10T00:46:12.155Z,2.79
2019-03-10T00:51:21.154Z,3.06
2019-03-10T00:56:30.111Z,2.90
2019-03-10T01:01:39.118Z,2.65
2019-03-10T01:06:48.062Z,3.14
2019-03-10T01:11:57.005Z,3.23
2019-03-10T01:17:06.006Z,3.16
2019-03-10T01:22:14.929Z,3.04
2019-03-10T01:27:23.878Z,3.34
2019-03-10T01:32:32.839Z,3.62
2019-03-10T01:37:41.853Z,3.50
2019-03-10T01:42:50.806Z,3.06
2019-03-10T01:47:59.879Z,3.15
2019-03-10T01:53:08.806Z,3.09
2019-03-10T01:58:17.790Z,3.83
2019-03-10T02:03:26.742Z,3.51
2019-03-10T02:08:35.693Z,3.42
2019-03-10T02:13:44.663Z,3.44
2019-03-10T02:18:53.620Z,3.03
2019-03-10T02:24:02.636Z,3.27
2019-03-10T02:29:11.622Z,3.43
2019-03-10T02:34:20.687Z,3.15
2019-03-10T02:39:29.682Z,3.28
2019-03-10T02:44:38.924Z,3.25
2019-03-10T02:49:47.907Z,3.74
2019-03-10T02:54:56.959Z,2.98
2019-03-10T03:00:05.947Z,3.04
2019-03-10T03:05:15.002Z,2.79
2019-03-10T03:10:23.963Z,2.74
2019-03-10T03:15:32.962Z,2.59
2019-03-10T03:20:41.947Z,2.40
2019-03-10T03:25:50.883Z,2.99
2019-03-10T03:30:59.891Z,2.50
2019-03-10T03:36:08.907Z,2.60
2019-03-10T03:41:17.898Z,2.36
2019-03-10T03:46:26.859Z,2.81
2019-03-10T03:51:35.854Z,2.34
2019-03-10T03:56:44.852Z,2.65
2019-03-10T04:01:53.842Z,2.60
2019-03-10T04:07:02.865Z,2.47
2019-03-10T04:12:11.864Z,3.09
2019-03-10T04:17:20.930Z,2.35
2019-03-10T04:22:29.914Z,2.43
2019-03-10T04:27:39.846Z,2.61
2019-03-10T04:32:48.846Z,2.46
2019-03-10T04:37:57.930Z,2.34
2019-03-10T04:43:06.914Z,2.37
2019-03-10T04:48:15.941Z,2.38
2019-03-10T04:53:24.930Z,2.75
2019-03-10T04:58:34.014Z,2.23
2019-03-10T05:03:43.000Z,2.52
2019-03-10T05:08:52.003Z,2.72
2019-03-10T05:14:00.994Z,2.43
2019-03-10T05:19:09.927Z,2.47
2019-03-10T05:24:18.914Z,3.21
2019-03-10T05:29:27.910Z,2.30
2019-03-10T05:34:36.918Z,2.27
2019-03-10T05:39:45.851Z,2.10
2019-03-10T05:44:55.326Z,2.56
2019-03-10T05:50:04.305Z,2.28
2019-03-10T05:55:13.310Z,2.72
2019-03-10T06:00:22.258Z,2.78
2019-03-10T06:05:31.262Z,2.13
2019-03-10T06:10:40.274Z,2.32
2019-03-10T06:15:49.278Z,2.20
2019-03-10T06:20:58.253Z,1.94
2019-03-10T06:26:07.246Z,2.35
2019-03-10T06:31:16.330Z,1.95
2019-03-10T06:36:25.318Z,1.75
2019-03-10T06:41:34.310Z,2.19
2019-03-10T06:46:43.330Z,2.30
2019-03-10T06:51:52.318Z,3.19
2019-03-10T06:57:01.314Z,2.65
2019-03-10T07:02:10.290Z,3.21
2019-03-10T07:07:19.335Z,2.45
2019-03-10T07:12:28.335Z,2.56
2019-03-10T07:17:37.338Z,2.23
2019-03-10T07:22:46.342Z,2.17
2019-03-10T07:27:55.336Z,2.36
2019-03-10T07:33:04.331Z,1.97
2019-03-10T07:38:13.339Z,2.48
2019-03-10T07:43:20.870Z,2.30
2019-03-10T07:48:29.869Z,1.96
2019-03-10T07:53:38.871Z,2.00
2019-03-10T07:58:47.833Z,1.85
2019-03-10T08:03:56.818Z,2.28
2019-03-10T08:09:05.799Z,1.60
2019-03-10T08:14:14.811Z,1.35
2019-03-10T08:19:23.808Z,1.63
2019-03-10T08:24:32.814Z,2.07
2019-03-10T08:29:41.802Z,2.08
2019-03-10T08:34:50.806Z,2.79
2019-03-10T08:39:59.744Z,2.36
2019-03-10T08:45:08.734Z,2.75
2019-03-10T08:50:17.785Z,2.70
2019-03-10T08:55:26.790Z,4.45
2019-03-10T09:00:35.791Z,3.54
2019-03-10T09:05:44.798Z,4.16
2019-03-10T09:10:53.758Z,4.60
2019-03-10T09:16:02.763Z,5.32
2019-03-10T09:21:11.734Z,5.60
2019-03-10T09:26:20.686Z,6.13
2019-03-10T09:31:29.642Z,6.13
2019-03-10T09:36:38.622Z,7.51
2019-03-10T09:41:47.537Z,5.07
2019-03-10T09:46:56.467Z,6.42
2019-03-10T09:52:05.466Z,5.24
2019-03-10T09:57:14.434Z,4.83
2019-03-10T10:02:23.470Z,4.46
2019-03-10T10:07:32.438Z,4.47
2019-03-10T10:12:41.430Z,3.87
2019-03-10T10:17:50.369Z,3.72
2019-03-10T10:22:59.378Z,3.35
2019-03-10T10:28:08.328Z,2.88
2019-03-10T10:33:17.299Z,3.21
2019-03-10T10:38:26.307Z,4.37
2019-03-10T10:43:35.270Z,3.74
2019-03-10T10:48:44.246Z,3.65
2019-03-10T10:53:53.197Z,3.37
2019-03-10T10:59:02.190Z,4.06
2019-03-10T11:04:11.150Z,3.20
2019-03-10T11:09:20.158Z,3.04
2019-03-10T11:14:29.132Z,3.18
2019-03-10T11:19:38.098Z,3.39
2019-03-10T11:24:47.047Z,4.21
2019-03-10T11:29:55.974Z,4.45
2019-03-10T11:35:05.006Z,3.82
2019-03-10T11:40:13.939Z,3.81
2019-03-10T11:45:22.878Z,3.90
2019-03-10T11:50:31.870Z,3.57
2019-03-10T11:55:40.814Z,4.46
2019-03-10T12:00:49.827Z,4.26
2019-03-10T12:05:58.823Z,2.43
2019-03-10T12:11:07.790Z,1.82
2019-03-10T12:16:16.869Z,1.96
2019-03-10T12:21:25.818Z,1.82
2019-03-10T12:26:34.887Z,1.46
2019-03-10T12:31:43.838Z,1.38
2019-03-10T12:36:52.835Z,1.41
2019-03-10T12:42:01.787Z,1.31
2019-03-10T12:47:10.882Z,0.86
2019-03-10T12:52:19.834Z,1.02
2019-03-10T12:57:28.891Z,1.37
2019-03-10T13:02:37.902Z,1.05
2019-03-10T13:07:46.906Z,1.07
2019-03-10T13:12:55.879Z,1.07
2019-03-10T13:18:04.897Z,0.86
2019-03-10T13:23:13.938Z,1.15
2019-03-10T13:28:22.958Z,0.92
2019-03-10T13:33:31.954Z,0.81
2019-03-10T13:38:41.014Z,1.09
2019-03-10T13:43:50.095Z,1.25
2019-03-10T13:48:59.130Z,0.81
2019-03-10T13:54:08.198Z,0.54
2019-03-10T13:59:17.415Z,0.55
2019-03-10T14:04:26.539Z,0.67
2019-03-10T14:09:35.574Z,0.39
2019-03-10T14:14:44.619Z,0.39
2019-03-10T14:19:53.711Z,0.44
2019-03-10T14:25:02.699Z,0.27
2019-03-10T14:30:12.118Z,0.54
2019-03-10T14:35:21.111Z,0.36
2019-03-10T14:40:30.143Z,0.33
2019-03-10T14:45:39.150Z,0.36
2019-03-10T14:50:48.492Z,0.27
2019-03-10T14:55:57.486Z,0.35
2019-03-10T15:01:06.462Z,0.38
2019-03-10T15:06:15.458Z,0.28
2019-03-10T15:11:25.198Z,0.41
2019-03-10T15:16:34.196Z,0.21
2019-03-10T15:21:43.174Z,0.15
2019-03-10T15:26:52.190Z,0.10
2019-03-10T15:32:01.223Z,0.10
2019-03-10T15:37:10.259Z,0.21
2019-03-10T15:42:19.198Z,0.20
2019-03-10T15:47:28.338Z,0.53
2019-03-10T15:52:37.336Z,0.55
2019-03-10T15:57:50.625Z,0.68
2019-03-10T16:02:55.159Z,0.41
2019-03-10T16:08:04.135Z,0.45
2019-03-10T16:13:13.199Z,0.30
2019-03-10T16:18:22.138Z,0.40
2019-03-10T16:23:31.215Z,0.38
2019-03-10T16:28:40.173Z,0.41
2019-03-10T16:33:49.334Z,0.73
2019-03-10T16:38:58.317Z,0.65
2019-03-10T16:44:07.323Z,0.53
2019-03-10T16:49:16.331Z,0.40
2019-03-10T16:54:25.370Z,0.47
2019-03-10T16:59:34.451Z,0.71
2019-03-10T17:04:43.510Z,0.65
2019-03-10T17:09:52.478Z,1.03
2019-03-10T17:15:01.467Z,0.55
2019-03-10T17:20:10.448Z,0.57
2019-03-10T17:25:19.447Z,0.56
2019-03-10T17:30:28.530Z,0.75
2019-03-10T17:35:37.492Z,0.70
2019-03-10T17:40:46.422Z,0.78
2019-03-10T17:45:55.372Z,0.94
2019-03-10T17:51:04.316Z,0.88
2019-03-10T17:56:13.261Z,0.65
2019-03-10T18:01:22.207Z,0.80
2019-03-10T18:06:31.190Z,0.60
2019-03-10T18:11:40.149Z,1.28
2019-03-10T18:16:49.170Z,1.18
2019-03-10T18:21:58.102Z,0.90
2019-03-10T18:27:07.058Z,1.12
2019-03-10T18:32:16.030Z,1.06
2019-03-10T18:37:24.975Z,0.81
2019-03-10T18:42:33.943Z,0.82
2019-03-10T18:47:42.943Z,0.67
2019-03-10T18:52:51.825Z,0.51
2019-03-10T18:58:00.803Z,0.36
2019-03-10T19:03:09.798Z,0.36
2019-03-10T19:08:18.811Z,0.54
2019-03-10T19:13:27.802Z,0.52
2019-03-10T19:18:36.813Z,0.86
2019-03-10T19:23:45.794Z,0.81
2019-03-10T19:28:54.741Z,0.52
2019-03-10T19:34:03.731Z,0.71
2019-03-10T19:39:12.746Z,0.69
2019-03-10T19:44:21.751Z,0.83
2019-03-10T19:49:30.702Z,1.49
2019-03-10T19:54:39.682Z,1.42
2019-03-10T19:59:48.804Z,1.04
2019-03-10T20:04:57.790Z,0.96
2019-03-10T20:10:06.765Z,0.78
2019-03-10T20:15:15.770Z,0.82
2019-03-10T20:20:24.850Z,0.63
2019-03-10T20:25:33.840Z,0.62
2019-03-10T20:30:42.858Z,0.90
2019-03-10T20:35:51.856Z,1.03
2019-03-10T20:41:00.850Z,1.10
2019-03-10T20:46:09.854Z,1.24
2019-03-10T20:51:18.842Z,1.09
2019-03-10T20:56:27.862Z,1.44
2019-03-10T21:01:36.854Z,1.37
2019-03-10T21:06:45.902Z,1.03
2019-03-10T21:11:54.898Z,1.47
2019-03-10T21:17:03.894Z,1.33
2019-03-10T21:22:12.892Z,1.41
2019-03-10T21:27:21.942Z,1.19
2019-03-10T21:32:30.943Z,1.50
2019-03-10T21:37:39.942Z,1.40
2019-03-10T21:42:48.942Z,1.13
2019-03-10T21:47:57.924Z,1.10
2019-03-10T21:53:06.890Z,1.45
2019-03-10T21:58:15.955Z,1.37
2019-03-10T22:03:24.946Z,1.53
2019-03-10T22:08:34.018Z,1.09
2019-03-10T22:13:46.583Z,1.39
2019-03-10T22:18:51.554Z,1.19
2019-03-10T22:24:03.046Z,1.38
2019-03-10T22:29:09.458Z,1.34
2019-03-10T22:34:18.474Z,1.33
2019-03-10T22:39:27.526Z,1.21
2019-03-10T22:44:36.506Z,1.43
2019-03-10T22:49:45.554Z,1.27
2019-03-10T22:54:54.538Z,1.26
2019-03-10T23:00:03.542Z,1.66
2019-03-10T23:05:12.554Z,1.43
2019-03-10T23:10:21.490Z,1.81
2019-03-10T23:15:30.570Z,0.74
2019-03-10T23:20:39.567Z,0.51
2019-03-10T23:25:48.624Z,0.53
2019-03-10T23:30:57.561Z,0.65
2019-03-10T23:36:06.629Z,0.68
2019-03-10T23:41:15.626Z,0.70
2019-03-10T23:46:24.650Z,0.71
2019-03-10T23:51:33.621Z,0.74
2019-03-10T23:56:42.630Z,0.61
